createdAt,value
2023-03-26T00:02:29.934Z,7.12
2023-03-26T00:05:32.482Z,6.99
2023-03-26T00:08:38.697Z,6.85
2023-03-26T00:11:42.096Z,6.65
2023-03-26T00:14:43.822Z,6.56
2023-03-26T00:17:48.280Z,6.57
2023-03-26T00:20:49.930Z,6.47
2023-03-26T00:23:53.637Z,6.40
2023-03-26T00:26:56.097Z,6.41
2023-03-26T00:29:59.639Z,6.44
2023-03-26T00:33:02.907Z,6.45
2023-03-26T00:36:07.070Z,6.47
2023-03-26T00:39:10.075Z,6.49
2023-03-26T00:42:15.239Z,6.44
2023-03-26T00:45:21.294Z,6.44
2023-03-26T00:48:34.368Z,6.38
2023-03-26T00:51:43.935Z,6.46
2023-03-26T00:54:47.148Z,6.46
2023-03-26T00:57:48.912Z,6.40
2023-03-26T01:01:00.050Z,6.41
2023-03-26T01:04:24.340Z,6.39
2023-03-26T01:07:29.260Z,6.40
2023-03-26T01:10:38.943Z,6.46
2023-03-26T01:13:55.918Z,6.33
2023-03-26T01:17:01.540Z,6.23
2023-03-26T01:20:16.188Z,6.07
2023-03-26T01:23:23.994Z,5.99
2023-03-26T01:26:59.593Z,5.92
2023-03-26T01:30:22.712Z,5.98
2023-03-26T01:33:36.637Z,6.07
2023-03-26T01:36:52.654Z,6.18
2023-03-26T01:40:07.433Z,6.14
2023-03-26T01:43:20.399Z,6.07
2023-03-26T01:46:25.749Z,6.02
2023-03-26T01:49:29.933Z,5.91
2023-03-26T01:52:31.681Z,5.77
2023-03-26T01:56:06.580Z,5.71
2023-03-26T01:59:45.451Z,5.76
2023-03-26T02:03:05.790Z,5.72
2023-03-26T02:06:31.408Z,5.65
2023-03-26T02:09:42.235Z,5.69
2023-03-26T02:12:44.859Z,5.82
2023-03-26T02:16:04.380Z,5.95
2023-03-26T02:19:15.938Z,5.97
2023-03-26T02:22:18.168Z,6.00
2023-03-26T02:25:27.050Z,6.01
2023-03-26T02:28:29.657Z,6.04
2023-03-26T02:31:31.740Z,6.11
2023-03-26T02:34:33.951Z,6.04
2023-03-26T02:37:36.525Z,6.18
2023-03-26T02:40:47.455Z,6.19
2023-03-26T02:43:49.978Z,6.21
2023-03-26T02:46:55.140Z,6.28
2023-03-26T02:50:32.540Z,6.32
2023-03-26T02:54:09.793Z,6.31
2023-03-26T02:57:37.612Z,6.24
2023-03-26T03:00:57.290Z,6.24
2023-03-26T03:04:04.617Z,6.15
2023-03-26T03:07:14.881Z,6.04
2023-03-26T03:10:21.968Z,6.10
2023-03-26T03:13:45.922Z,6.03
2023-03-26T03:16:51.909Z,5.94
2023-03-26T03:19:54.094Z,5.94
2023-03-26T03:22:56.479Z,5.94
2023-03-26T03:25:58.786Z,5.94
2023-03-26T03:29:00.808Z,5.99
2023-03-26T03:32:03.111Z,5.99
2023-03-26T03:35:17.258Z,5.98
2023-03-26T03:38:23.759Z,6.03
2023-03-26T03:41:26.969Z,5.96
2023-03-26T03:44:28.957Z,5.93
2023-03-26T03:47:30.941Z,5.89
2023-03-26T03:50:35.499Z,5.88
2023-03-26T03:54:08.598Z,5.89
2023-03-26T03:57:32.130Z,5.88
2023-03-26T04:00:41.856Z,5.85
2023-03-26T04:04:02.256Z,5.86
2023-03-26T04:07:19.232Z,5.93
2023-03-26T04:10:39.115Z,6.00
2023-03-26T04:13:46.888Z,5.97
2023-03-26T04:17:02.364Z,5.98
2023-03-26T04:20:08.960Z,6.05
2023-03-26T04:23:14.278Z,6.12
2023-03-26T04:26:19.998Z,6.16
2023-03-26T04:29:49.727Z,6.15
2023-03-26T04:32:58.578Z,6.16
2023-03-26T04:36:03.483Z,6.08
2023-03-26T04:39:11.589Z,6.04
2023-03-26T04:42:33.397Z,6.10
2023-03-26T04:45:45.756Z,6.11
2023-03-26T04:48:48.917Z,6.10
2023-03-26T04:51:50.753Z,6.10
2023-03-26T04:56:06.315Z,6.11
2023-03-26T04:59:35.216Z,6.10
2023-03-26T05:02:42.029Z,6.15
2023-03-26T05:05:43.734Z,6.19
2023-03-26T05:08:46.236Z,6.24
2023-03-26T05:11:58.518Z,6.15
2023-03-26T05:15:00.511Z,6.10
2023-03-26T05:18:19.531Z,5.95
2023-03-26T05:21:27.000Z,5.91
2023-03-26T05:24:29.074Z,5.73
2023-03-26T05:27:30.923Z,5.76
2023-03-26T05:30:32.926Z,5.78
2023-03-26T05:33:36.466Z,5.85
2023-03-26T05:36:42.611Z,5.85
2023-03-26T05:40:02.200Z,5.98
2023-03-26T05:43:20.281Z,6.03
2023-03-26T05:46:29.793Z,6.10
2023-03-26T05:49:32.214Z,6.16
2023-03-26T05:52:34.045Z,6.17
2023-03-26T05:56:02.209Z,6.27
2023-03-26T05:59:23.848Z,6.41
2023-03-26T06:02:44.807Z,6.45
2023-03-26T06:06:15.639Z,6.41
2023-03-26T06:09:22.942Z,6.48
2023-03-26T06:12:24.878Z,6.47
2023-03-26T06:15:26.816Z,6.45
2023-03-26T06:18:36.485Z,6.49
2023-03-26T06:21:56.700Z,6.59
2023-03-26T06:25:05.034Z,6.71
2023-03-26T06:28:20.213Z,6.79
2023-03-26T06:32:12.471Z,6.85
2023-03-26T06:35:25.420Z,6.87
2023-03-26T06:38:27.772Z,6.94
2023-03-26T06:41:29.845Z,7.00
2023-03-26T06:44:37.429Z,7.01
2023-03-26T06:47:57.887Z,7.05
2023-03-26T06:51:14.389Z,7.10
2023-03-26T06:54:34.768Z,7.01
2023-03-26T06:57:48.949Z,7.09
2023-03-26T07:00:54.659Z,7.20
2023-03-26T07:04:15.806Z,7.28
2023-03-26T07:07:36.009Z,7.28
2023-03-26T07:11:25.536Z,7.35
2023-03-26T07:14:47.298Z,7.48
2023-03-26T07:18:07.572Z,7.52
2023-03-26T07:21:11.927Z,7.65
2023-03-26T07:24:14.059Z,7.57
2023-03-26T07:27:46.485Z,7.67
2023-03-26T07:31:13.818Z,7.66
2023-03-26T07:34:57.487Z,7.61
2023-03-26T07:38:49.622Z,7.56
2023-03-26T07:42:23.518Z,7.59
2023-03-26T07:45:44.833Z,7.66
2023-03-26T07:49:00.148Z,7.80
2023-03-26T07:52:14.597Z,8.01
2023-03-26T07:56:00.840Z,8.25
2023-03-26T07:59:32.312Z,8.33
2023-03-26T08:03:31.802Z,8.32
2023-03-26T08:07:00.089Z,8.29
2023-03-26T08:10:38.336Z,8.27
2023-03-26T08:14:16.552Z,8.44
2023-03-26T08:17:31.380Z,8.68
2023-03-26T08:20:34.587Z,8.87
2023-03-26T08:23:50.400Z,9.03
2023-03-26T08:27:13.876Z,9.03
2023-03-26T08:30:28.074Z,9.12
2023-03-26T08:33:31.240Z,9.13
2023-03-26T08:36:33.053Z,9.06
2023-03-26T08:39:34.926Z,9.01
2023-03-26T08:42:55.028Z,8.95
2023-03-26T08:46:19.762Z,8.80
2023-03-26T08:49:34.327Z,8.70
2023-03-26T08:53:01.284Z,8.78
2023-03-26T08:56:13.104Z,9.00
2023-03-26T09:00:02.816Z,9.44
2023-03-26T09:03:10.914Z,9.88
2023-03-26T09:06:27.688Z,10.19
2023-03-26T09:09:59.157Z,10.50
2023-03-26T09:13:19.630Z,10.82
2023-03-26T09:16:51.265Z,10.74
2023-03-26T09:20:13.406Z,10.62
2023-03-26T09:23:52.854Z,10.49
2023-03-26T09:27:26.432Z,10.49
2023-03-26T09:30:36.252Z,10.51
2023-03-26T09:33:56.350Z,10.66
2023-03-26T09:37:31.817Z,10.78
2023-03-26T09:40:58.146Z,10.75
2023-03-26T09:44:25.452Z,10.77
2023-03-26T09:48:11.384Z,10.66
2023-03-26T09:52:06.690Z,10.57
2023-03-26T09:55:32.679Z,10.45
2023-03-26T09:58:44.023Z,10.37
2023-03-26T10:02:04.408Z,10.34
2023-03-26T10:05:35.631Z,10.54
2023-03-26T10:09:07.513Z,10.87
2023-03-26T10:12:51.270Z,11.12
2023-03-26T10:16:21.287Z,11.51
2023-03-26T10:19:35.996Z,11.56
2023-03-26T10:22:56.293Z,11.59
2023-03-26T10:26:06.064Z,11.51
2023-03-26T10:29:45.224Z,11.49
2023-03-26T10:32:52.064Z,11.36
2023-03-26T10:36:10.022Z,11.19
2023-03-26T10:39:37.289Z,10.66
2023-03-26T10:43:04.679Z,10.54
2023-03-26T10:46:45.635Z,10.81
2023-03-26T10:50:06.191Z,11.19
2023-03-26T10:53:40.812Z,11.31
2023-03-26T10:56:56.413Z,11.53
2023-03-26T11:00:12.662Z,11.60
2023-03-26T11:03:53.782Z,11.64
2023-03-26T11:07:21.058Z,11.80
2023-03-26T11:10:58.215Z,11.97
2023-03-26T11:14:39.839Z,12.21
2023-03-26T11:17:52.310Z,12.35
2023-03-26T11:21:18.710Z,12.40
2023-03-26T11:24:45.242Z,12.57
2023-03-26T11:27:58.921Z,12.50
2023-03-26T11:31:27.696Z,12.64
2023-03-26T11:34:51.329Z,12.70
2023-03-26T11:38:06.196Z,12.53
2023-03-26T11:41:22.741Z,12.65
2023-03-26T11:45:08.185Z,12.69
2023-03-26T11:48:35.760Z,12.47
2023-03-26T11:51:43.710Z,12.37
2023-03-26T11:54:48.660Z,12.38
2023-03-26T11:57:57.126Z,12.39
2023-03-26T12:00:59.210Z,12.28
2023-03-26T12:04:13.442Z,12.41
2023-03-26T12:07:30.285Z,12.31
2023-03-26T12:10:38.436Z,12.59
2023-03-26T12:14:03.750Z,12.92
2023-03-26T12:17:08.816Z,13.14
2023-03-26T12:20:25.661Z,13.23
2023-03-26T12:23:35.954Z,13.36
2023-03-26T12:26:45.189Z,13.53
2023-03-26T12:30:00.310Z,13.68
2023-03-26T12:33:05.777Z,13.76
2023-03-26T12:36:27.987Z,13.80
2023-03-26T12:40:11.855Z,13.79
2023-03-26T12:44:51.386Z,13.93
2023-03-26T12:47:57.562Z,13.90
2023-03-26T12:50:14.941Z,13.92
2023-03-26T12:53:47.143Z,13.73
2023-03-26T12:57:13.375Z,13.60
2023-03-26T13:00:46.253Z,13.42
2023-03-26T13:04:18.723Z,13.17
2023-03-26T13:08:03.827Z,12.78
2023-03-26T13:11:38.358Z,12.32
2023-03-26T13:15:04.439Z,12.16
2023-03-26T13:18:26.275Z,11.74
2023-03-26T13:21:53.475Z,11.49
2023-03-26T13:25:21.968Z,11.35
2023-03-26T13:28:39.375Z,11.16
2023-03-26T13:32:13.588Z,10.91
2023-03-26T13:35:49.791Z,10.69
2023-03-26T13:39:10.229Z,10.56
2023-03-26T13:42:39.080Z,10.60
2023-03-26T13:45:49.785Z,10.52
2023-03-26T13:48:51.723Z,10.43
2023-03-26T13:52:02.781Z,10.44
2023-03-26T13:55:18.362Z,10.46
2023-03-26T13:58:53.132Z,10.43
2023-03-26T14:02:02.032Z,10.45
2023-03-26T14:05:10.294Z,10.51
2023-03-26T14:08:39.090Z,10.37
2023-03-26T14:11:56.933Z,10.20
2023-03-26T14:15:17.711Z,10.23
2023-03-26T14:18:54.540Z,10.41
2023-03-26T14:22:21.999Z,10.51
2023-03-26T14:25:49.303Z,10.49
2023-03-26T14:29:12.332Z,10.60
2023-03-26T14:32:47.800Z,10.77
2023-03-26T14:36:10.251Z,10.60
2023-03-26T14:39:37.567Z,10.49
2023-03-26T14:43:09.822Z,10.40
2023-03-26T14:46:54.285Z,10.18
2023-03-26T14:50:37.771Z,10.11
2023-03-26T14:53:47.265Z,10.17
2023-03-26T14:57:20.158Z,10.13
2023-03-26T15:00:56.391Z,10.23
2023-03-26T15:04:47.147Z,10.26
2023-03-26T15:07:52.245Z,10.21
2023-03-26T15:11:34.639Z,10.13
2023-03-26T15:15:02.582Z,10.05
2023-03-26T15:18:32.035Z,10.00
2023-03-26T15:22:12.605Z,9.81
2023-03-26T15:25:49.255Z,9.53
2023-03-26T15:29:12.102Z,9.59
2023-03-26T15:32:41.393Z,9.68
2023-03-26T15:36:05.127Z,9.45
2023-03-26T15:39:59.150Z,9.25
2023-03-26T15:43:18.079Z,9.17
2023-03-26T15:46:38.565Z,9.08
2023-03-26T15:49:45.440Z,9.01
2023-03-26T15:52:57.223Z,9.02
2023-03-26T15:56:10.588Z,9.12
2023-03-26T15:59:40.687Z,9.17
2023-03-26T16:03:09.994Z,9.14
2023-03-26T16:06:14.240Z,8.94
2023-03-26T16:09:38.991Z,8.84
2023-03-26T16:13:30.981Z,8.88
2023-03-26T16:16:49.056Z,8.82
2023-03-26T16:19:58.767Z,8.79
2023-03-26T16:23:06.462Z,8.71
2023-03-26T16:26:08.304Z,8.62
2023-03-26T16:29:25.660Z,8.59
2023-03-26T16:32:29.921Z,8.49
2023-03-26T16:35:54.043Z,8.45
2023-03-26T16:39:08.537Z,8.35
2023-03-26T16:42:16.067Z,8.28
2023-03-26T16:45:51.087Z,8.23
2023-03-26T16:49:03.453Z,8.16
2023-03-26T16:52:32.258Z,8.16
2023-03-26T16:55:43.877Z,8.08
2023-03-26T16:58:56.359Z,7.98
2023-03-26T17:02:08.380Z,8.01
2023-03-26T17:05:22.169Z,7.94
2023-03-26T17:08:52.236Z,7.97
2023-03-26T17:12:19.266Z,7.89
2023-03-26T17:15:41.197Z,7.83
2023-03-26T17:19:04.296Z,7.77
2023-03-26T17:22:20.038Z,7.65
2023-03-26T17:25:45.623Z,7.64
2023-03-26T17:28:57.631Z,7.58
2023-03-26T17:32:09.443Z,7.57
2023-03-26T17:35:13.951Z,7.54
2023-03-26T17:38:28.746Z,7.50
2023-03-26T17:41:55.764Z,7.39
2023-03-26T17:45:20.292Z,7.36
2023-03-26T17:48:26.042Z,7.36
2023-03-26T17:51:48.628Z,7.34
2023-03-26T17:54:55.135Z,7.18
2023-03-26T17:58:04.995Z,7.10
2023-03-26T18:01:09.891Z,7.09
2023-03-26T18:04:18.606Z,7.03
2023-03-26T18:07:54.360Z,7.03
2023-03-26T18:11:14.722Z,6.96
2023-03-26T18:14:48.493Z,6.89
2023-03-26T18:17:50.825Z,6.78
2023-03-26T18:20:54.804Z,6.67
2023-03-26T18:24:00.661Z,6.52
2023-03-26T18:27:07.078Z,6.45
2023-03-26T18:30:23.783Z,6.36
2023-03-26T18:33:29.238Z,6.35
2023-03-26T18:36:31.374Z,6.21
2023-03-26T18:39:33.107Z,6.16
2023-03-26T18:42:36.265Z,6.17
2023-03-26T18:45:39.730Z,6.03
2023-03-26T18:48:41.947Z,5.99
2023-03-26T18:51:56.166Z,6.06
2023-03-26T18:54:59.500Z,6.10
2023-03-26T18:58:12.470Z,6.01
2023-03-26T19:01:25.021Z,5.89
2023-03-26T19:04:31.170Z,5.78
2023-03-26T19:07:35.413Z,5.79
2023-03-26T19:10:39.155Z,5.58
2023-03-26T19:13:42.116Z,5.40
2023-03-26T19:16:56.202Z,5.52
2023-03-26T19:19:58.633Z,5.49
2023-03-26T19:23:02.269Z,5.31
2023-03-26T19:26:06.715Z,5.14
2023-03-26T19:29:21.247Z,5.22
2023-03-26T19:32:32.999Z,4.98
2023-03-26T19:35:43.739Z,5.07
2023-03-26T19:38:50.886Z,4.83
2023-03-26T19:41:53.205Z,4.69
2023-03-26T19:44:57.488Z,4.62
2023-03-26T19:48:14.391Z,4.60
2023-03-26T19:51:34.753Z,4.54
2023-03-26T19:55:02.906Z,4.57
2023-03-26T19:58:05.944Z,4.58
2023-03-26T20:01:28.067Z,4.37
2023-03-26T20:04:32.537Z,4.24
2023-03-26T20:07:35.276Z,4.07
2023-03-26T20:10:38.246Z,4.07
2023-03-26T20:13:40.315Z,4.00
2023-03-26T20:16:45.404Z,4.00
2023-03-26T20:19:47.965Z,4.19
2023-03-26T20:22:49.598Z,4.03
2023-03-26T20:25:54.982Z,3.86
2023-03-26T20:28:57.182Z,3.84
2023-03-26T20:31:59.353Z,3.84
2023-03-26T20:35:00.961Z,3.67
2023-03-26T20:38:02.736Z,3.58
2023-03-26T20:41:04.579Z,3.49
2023-03-26T20:44:13.809Z,3.56
2023-03-26T20:47:15.516Z,3.51
2023-03-26T20:50:22.743Z,3.38
2023-03-26T20:53:27.480Z,3.42
2023-03-26T20:56:29.175Z,3.40
2023-03-26T20:59:30.914Z,3.35
2023-03-26T21:02:32.665Z,3.40
2023-03-26T21:05:35.197Z,3.43
2023-03-26T21:08:39.281Z,3.56
2023-03-26T21:11:53.847Z,3.73
2023-03-26T21:14:56.203Z,3.65
2023-03-26T21:17:58.380Z,3.69
2023-03-26T21:21:17.883Z,3.69
2023-03-26T21:24:45.194Z,3.60
2023-03-26T21:28:01.814Z,3.55
2023-03-26T21:31:05.477Z,3.55
2023-03-26T21:34:08.447Z,3.46
2023-03-26T21:37:10.310Z,3.42
2023-03-26T21:40:15.002Z,3.44
2023-03-26T21:43:17.617Z,3.54
2023-03-26T21:46:19.868Z,3.38
2023-03-26T21:49:22.153Z,3.40
2023-03-26T21:52:24.430Z,3.32
2023-03-26T21:55:26.534Z,3.21
2023-03-26T21:59:00.238Z,3.15
2023-03-26T22:02:10.371Z,3.16
2023-03-26T22:05:31.200Z,3.21
2023-03-26T22:08:41.714Z,3.33
2023-03-26T22:11:43.794Z,3.26
2023-03-26T22:14:45.794Z,3.24
2023-03-26T22:17:55.739Z,3.16
2023-03-26T22:20:59.246Z,3.14
2023-03-26T22:24:04.011Z,3.13
2023-03-26T22:27:06.234Z,3.11
2023-03-26T22:30:09.017Z,3.20
2023-03-26T22:33:12.146Z,3.23
2023-03-26T22:36:22.343Z,3.02
2023-03-26T22:39:25.407Z,2.88
2023-03-26T22:42:27.467Z,2.89
2023-03-26T22:45:30.154Z,2.91
2023-03-26T22:48:32.184Z,2.88
2023-03-26T22:51:34.142Z,2.96
2023-03-26T22:54:36.921Z,2.93
2023-03-26T22:57:39.568Z,2.95
2023-03-26T23:00:41.888Z,2.93
2023-03-26T23:03:43.932Z,2.91
2023-03-26T23:06:45.856Z,2.96
2023-03-26T23:09:47.566Z,3.00
2023-03-26T23:12:49.735Z,2.98
2023-03-26T23:15:57.174Z,2.99
2023-03-26T23:19:00.252Z,2.96
2023-03-26T23:22:02.359Z,3.05
2023-03-26T23:25:04.165Z,2.96
2023-03-26T23:28:05.845Z,2.95
2023-03-26T23:31:09.970Z,2.93
2023-03-26T23:34:13.683Z,2.97
2023-03-26T23:37:22.990Z,3.09
2023-03-26T23:40:25.171Z,3.02
2023-03-26T23:43:27.393Z,2.98
2023-03-26T23:46:35.314Z,2.92
2023-03-26T23:49:37.367Z,2.92
2023-03-26T23:52:40.592Z,2.98
2023-03-26T23:55:47.202Z,2.98
2023-03-26T23:58:49.920Z,2.78
